createdAt,value
2022-09-11T00:02:06.607Z,82.81
2022-09-11T00:04:33.186Z,82.97
2022-09-11T00:06:59.964Z,82.55
2022-09-11T00:09:26.785Z,83.03
2022-09-11T00:11:53.143Z,82.98
2022-09-11T00:14:20.085Z,83.06
2022-09-11T00:16:47.276Z,82.87
2022-09-11T00:19:17.653Z,83.01
2022-09-11T00:21:45.400Z,83.43
2022-09-11T00:24:12.170Z,82.98
2022-09-11T00:26:39.960Z,82.71
2022-09-11T00:29:06.442Z,83.37
2022-09-11T00:31:33.427Z,83.48
2022-09-11T00:33:59.861Z,83.38
2022-09-11T00:36:29.072Z,83.00
2022-09-11T00:38:56.421Z,83.43
2022-09-11T00:41:26.276Z,83.49
2022-09-11T00:44:04.805Z,83.20
2022-09-11T00:46:42.096Z,83.29
2022-09-11T00:49:23.673Z,83.43
2022-09-11T00:51:54.204Z,82.99
2022-09-11T00:54:26.832Z,83.64
2022-09-11T00:56:56.785Z,83.03
2022-09-11T00:59:27.656Z,83.07
2022-09-11T01:01:54.478Z,83.47
2022-09-11T01:04:21.815Z,83.33
2022-09-11T01:06:49.172Z,83.26
2022-09-11T01:09:15.735Z,83.02
2022-09-11T01:11:50.408Z,83.23
2022-09-11T01:14:32.448Z,83.32
2022-09-11T01:17:32.887Z,83.41
2022-09-11T01:20:24.180Z,83.05
2022-09-11T01:23:08.319Z,83.55
2022-09-11T01:26:06.321Z,83.16
2022-09-11T01:28:52.288Z,83.54
2022-09-11T01:31:24.272Z,83.31
2022-09-11T01:34:02.667Z,82.96
2022-09-11T01:36:35.537Z,83.14
2022-09-11T01:39:04.604Z,83.21
2022-09-11T01:41:42.348Z,83.62
2022-09-11T01:44:18.035Z,83.30
2022-09-11T01:46:49.861Z,83.77
2022-09-11T01:49:38.703Z,83.55
2022-09-11T01:52:10.476Z,83.54
2022-09-11T01:54:51.158Z,83.32
2022-09-11T01:57:49.967Z,83.38
2022-09-11T02:00:17.064Z,83.46
2022-09-11T02:02:49.554Z,83.23
2022-09-11T02:05:22.973Z,83.52
2022-09-11T02:07:58.217Z,83.29
2022-09-11T02:10:48.293Z,83.16
2022-09-11T02:13:26.066Z,83.52
2022-09-11T02:15:58.177Z,83.38
2022-09-11T02:18:31.227Z,83.38
2022-09-11T02:20:57.822Z,83.48
2022-09-11T02:23:24.208Z,83.14
2022-09-11T02:25:50.660Z,83.74
2022-09-11T02:28:17.172Z,83.48
2022-09-11T02:30:43.967Z,83.57
2022-09-11T02:33:29.594Z,83.68
2022-09-11T02:36:08.257Z,83.56
2022-09-11T02:38:53.662Z,83.47
2022-09-11T02:41:29.774Z,83.49
2022-09-11T02:44:06.768Z,83.09
2022-09-11T02:47:05.509Z,83.58
2022-09-11T02:49:51.347Z,83.55
2022-09-11T02:52:30.617Z,83.72
2022-09-11T02:55:10.642Z,83.34
2022-09-11T02:57:45.423Z,83.54
2022-09-11T03:00:13.357Z,83.35
2022-09-11T03:02:44.100Z,83.79
2022-09-11T03:05:11.491Z,83.61
2022-09-11T03:07:37.847Z,83.50
2022-09-11T03:10:04.701Z,83.44
2022-09-11T03:12:31.757Z,83.48
2022-09-11T03:14:58.381Z,83.64
2022-09-11T03:17:25.366Z,83.63
2022-09-11T03:19:51.768Z,83.35
2022-09-11T03:22:18.122Z,83.38
2022-09-11T03:24:45.038Z,83.55
2022-09-11T03:27:11.403Z,83.46
2022-09-11T03:29:37.791Z,83.21
2022-09-11T03:32:04.467Z,83.44
2022-09-11T03:34:31.665Z,83.67
2022-09-11T03:36:58.062Z,83.67
2022-09-11T03:39:24.481Z,83.94
2022-09-11T03:41:51.390Z,83.25
2022-09-11T03:44:17.725Z,83.44
2022-09-11T03:46:44.086Z,83.42
2022-09-11T03:49:10.483Z,83.48
2022-09-11T03:51:37.840Z,83.30
2022-09-11T03:54:04.450Z,83.35
2022-09-11T03:56:30.923Z,83.48
2022-09-11T03:59:00.086Z,83.54
2022-09-11T04:01:27.316Z,83.98
2022-09-11T04:03:54.083Z,83.68
2022-09-11T04:06:20.497Z,83.68
2022-09-11T04:08:46.850Z,83.68
2022-09-11T04:11:14.210Z,83.59
2022-09-11T04:13:42.103Z,83.83
2022-09-11T04:16:12.737Z,84.01
2022-09-11T04:18:40.311Z,83.65
2022-09-11T04:21:09.086Z,83.57
2022-09-11T04:23:35.829Z,83.95
2022-09-11T04:26:02.615Z,84.08
2022-09-11T04:28:32.057Z,84.15
2022-09-11T04:31:02.912Z,84.00
2022-09-11T04:33:29.397Z,83.89
2022-09-11T04:35:55.756Z,83.83
2022-09-11T04:38:23.895Z,83.81
2022-09-11T04:40:50.311Z,83.87
2022-09-11T04:43:17.730Z,83.83
2022-09-11T04:45:44.117Z,83.87
2022-09-11T04:48:10.657Z,83.68
2022-09-11T04:50:37.084Z,83.69
2022-09-11T04:53:04.047Z,83.99
2022-09-11T04:55:30.407Z,83.84
2022-09-11T04:57:56.992Z,83.95
2022-09-11T05:00:25.011Z,83.95
2022-09-11T05:02:51.358Z,84.09
2022-09-11T05:05:17.806Z,84.18
2022-09-11T05:07:44.161Z,84.17
2022-09-11T05:10:10.981Z,84.14
2022-09-11T05:12:37.408Z,84.07
2022-09-11T05:15:04.215Z,83.85
2022-09-11T05:17:30.622Z,84.29
2022-09-11T05:19:57.010Z,84.05
2022-09-11T05:22:23.391Z,84.17
2022-09-11T05:24:49.804Z,84.06
2022-09-11T05:27:16.174Z,84.09
2022-09-11T05:29:42.517Z,84.44
2022-09-11T05:32:08.902Z,83.88
2022-09-11T05:34:35.232Z,84.29
2022-09-11T05:37:02.214Z,84.22
2022-09-11T05:39:28.625Z,84.27
2022-09-11T05:41:57.858Z,83.98
2022-09-11T05:44:24.222Z,84.68
2022-09-11T05:46:50.716Z,84.17
2022-09-11T05:49:17.509Z,84.18
2022-09-11T05:51:43.893Z,84.13
2022-09-11T05:54:10.453Z,83.74
2022-09-11T05:56:36.823Z,84.14
2022-09-11T05:59:03.560Z,84.05
2022-09-11T06:01:31.154Z,84.16
2022-09-11T06:03:57.955Z,84.27
2022-09-11T06:06:25.078Z,83.98
2022-09-11T06:08:52.665Z,84.17
2022-09-11T06:11:20.601Z,83.79
2022-09-11T06:13:47.735Z,83.84
2022-09-11T06:16:19.216Z,83.67
2022-09-11T06:18:49.152Z,84.10
2022-09-11T06:21:19.928Z,84.12
2022-09-11T06:23:47.705Z,84.04
2022-09-11T06:26:16.106Z,83.92
2022-09-11T06:28:42.847Z,84.05
2022-09-11T06:31:16.274Z,84.10
2022-09-11T06:33:43.277Z,83.95
2022-09-11T06:36:12.719Z,84.16
2022-09-11T06:38:39.340Z,84.28
2022-09-11T06:41:08.214Z,83.97
2022-09-11T06:43:34.578Z,84.09
2022-09-11T06:46:15.403Z,83.84
2022-09-11T06:48:44.191Z,84.03
2022-09-11T06:51:12.870Z,84.17
2022-09-11T06:53:41.093Z,83.68
2022-09-11T06:56:10.005Z,83.69
2022-09-11T06:58:36.393Z,84.08
2022-09-11T07:01:07.978Z,83.72
2022-09-11T07:03:34.691Z,83.69
2022-09-11T07:06:01.454Z,83.88
2022-09-11T07:08:27.933Z,84.11
2022-09-11T07:10:54.680Z,83.38
2022-09-11T07:13:24.157Z,83.95
2022-09-11T07:15:59.855Z,83.05
2022-09-11T07:18:26.206Z,83.40
2022-09-11T07:20:52.590Z,83.15
2022-09-11T07:23:19.247Z,83.47
2022-09-11T07:25:45.926Z,83.40
2022-09-11T07:28:12.392Z,83.29
2022-09-11T07:30:40.400Z,83.17
2022-09-11T07:33:07.127Z,83.12
2022-09-11T07:35:37.053Z,83.69
2022-09-11T07:38:03.473Z,84.14
2022-09-11T07:40:29.803Z,83.42
2022-09-11T07:42:56.184Z,83.72
2022-09-11T07:45:23.173Z,83.78
2022-09-11T07:47:49.740Z,83.57
2022-09-11T07:50:17.978Z,83.38
2022-09-11T07:52:44.425Z,83.51
2022-09-11T07:55:10.793Z,83.10
2022-09-11T07:57:37.226Z,82.46
2022-09-11T08:00:04.497Z,82.60
2022-09-11T08:02:31.076Z,83.25
2022-09-11T08:04:57.460Z,83.13
2022-09-11T08:07:24.053Z,82.37
2022-09-11T08:10:10.230Z,82.66
2022-09-11T08:12:36.965Z,82.61
2022-09-11T08:15:03.489Z,82.92
2022-09-11T08:17:31.517Z,82.16
2022-09-11T08:19:57.853Z,82.23
2022-09-11T08:22:24.202Z,82.33
2022-09-11T08:24:50.627Z,81.90
2022-09-11T08:27:16.990Z,82.37
2022-09-11T08:29:43.325Z,81.75
2022-09-11T08:32:09.726Z,81.48
2022-09-11T08:34:38.459Z,81.31
2022-09-11T08:37:04.885Z,80.40
2022-09-11T08:39:31.507Z,81.21
2022-09-11T08:42:09.604Z,80.94
2022-09-11T08:44:43.962Z,81.75
2022-09-11T08:47:19.013Z,80.68
2022-09-11T08:49:55.179Z,80.74
2022-09-11T08:52:21.774Z,80.77
2022-09-11T08:54:48.240Z,80.59
2022-09-11T08:57:17.715Z,80.04
2022-09-11T08:59:58.831Z,79.70
2022-09-11T09:02:46.732Z,79.05
2022-09-11T09:05:20.397Z,79.34
2022-09-11T09:08:03.366Z,78.87
2022-09-11T09:10:38.685Z,78.24
2022-09-11T09:13:23.620Z,78.42
2022-09-11T09:16:17.873Z,78.34
2022-09-11T09:19:03.350Z,79.36
2022-09-11T09:22:05.696Z,79.81
2022-09-11T09:24:42.301Z,79.08
2022-09-11T09:27:15.143Z,79.81
2022-09-11T09:29:47.665Z,78.84
2022-09-11T09:32:25.600Z,78.00
2022-09-11T09:34:57.560Z,75.85
2022-09-11T09:37:26.262Z,76.31
2022-09-11T09:39:53.281Z,76.51
2022-09-11T09:42:33.970Z,77.32
2022-09-11T09:45:32.812Z,77.47
2022-09-11T09:48:00.971Z,78.29
2022-09-11T09:50:35.777Z,78.23
2022-09-11T09:53:39.118Z,76.75
2022-09-11T09:56:06.199Z,76.99
2022-09-11T09:58:36.979Z,76.74
2022-09-11T10:01:25.156Z,76.38
2022-09-11T10:04:27.003Z,77.24
2022-09-11T10:07:22.260Z,76.13
2022-09-11T10:09:55.038Z,75.59
2022-09-11T10:12:27.956Z,76.58
2022-09-11T10:15:04.604Z,74.56
2022-09-11T10:17:33.486Z,73.03
2022-09-11T10:20:26.569Z,72.86
2022-09-11T10:22:54.987Z,74.20
2022-09-11T10:25:30.065Z,73.86
2022-09-11T10:28:17.321Z,74.19
2022-09-11T10:30:59.263Z,75.23
2022-09-11T10:33:33.528Z,74.38
2022-09-11T10:36:04.045Z,74.34
2022-09-11T10:38:41.320Z,73.53
2022-09-11T10:41:14.683Z,74.42
2022-09-11T10:43:53.040Z,73.96
2022-09-11T10:46:38.470Z,74.22
2022-09-11T10:49:05.241Z,73.77
2022-09-11T10:51:34.395Z,73.53
2022-09-11T10:54:31.899Z,72.86
2022-09-11T10:57:13.107Z,72.80
2022-09-11T10:59:55.701Z,73.34
2022-09-11T11:02:36.122Z,70.50
2022-09-11T11:05:13.789Z,69.27
2022-09-11T11:07:57.724Z,69.21
2022-09-11T11:10:27.316Z,67.73
2022-09-11T11:12:54.214Z,67.55
2022-09-11T11:15:35.493Z,67.20
2022-09-11T11:18:17.154Z,67.69
2022-09-11T11:20:50.169Z,67.25
2022-09-11T11:23:54.282Z,67.23
2022-09-11T11:26:20.563Z,67.07
2022-09-11T11:28:59.284Z,67.50
2022-09-11T11:31:55.604Z,66.87
2022-09-11T11:34:46.879Z,65.99
2022-09-11T11:37:19.245Z,66.84
2022-09-11T11:40:03.333Z,66.57
2022-09-11T11:42:35.642Z,67.36
2022-09-11T11:45:16.612Z,68.56
2022-09-11T11:47:43.970Z,68.22
2022-09-11T11:50:31.876Z,68.54
2022-09-11T11:53:25.717Z,68.82
2022-09-11T11:56:08.505Z,69.14
2022-09-11T11:58:49.166Z,66.63
2022-09-11T12:01:35.253Z,65.27
2022-09-11T12:04:09.941Z,66.37
2022-09-11T12:06:36.360Z,65.23
2022-09-11T12:09:05.125Z,65.50
2022-09-11T12:11:33.222Z,65.81
2022-09-11T12:14:00.386Z,66.54
2022-09-11T12:16:32.042Z,67.06
2022-09-11T12:19:07.434Z,66.41
2022-09-11T12:21:36.933Z,65.28
2022-09-11T12:24:03.266Z,65.62
2022-09-11T12:26:31.473Z,64.41
2022-09-11T12:29:14.009Z,64.06
2022-09-11T12:31:49.434Z,62.11
2022-09-11T12:34:43.917Z,62.96
2022-09-11T12:37:27.547Z,61.33
2022-09-11T12:40:06.406Z,62.17
2022-09-11T12:42:32.743Z,62.56
2022-09-11T12:44:59.792Z,63.17
2022-09-11T12:47:35.052Z,63.63
2022-09-11T12:50:04.467Z,64.33
2022-09-11T12:52:33.843Z,64.00
2022-09-11T12:55:06.722Z,63.79
2022-09-11T12:57:36.211Z,65.15
2022-09-11T13:00:08.062Z,65.46
2022-09-11T13:02:37.934Z,64.08
2022-09-11T13:05:15.776Z,64.16
2022-09-11T13:07:46.775Z,64.67
2022-09-11T13:10:37.026Z,65.35
2022-09-11T13:13:07.173Z,65.00
2022-09-11T13:15:43.087Z,65.14
2022-09-11T13:18:30.928Z,64.26
2022-09-11T13:21:06.231Z,64.11
2022-09-11T13:23:32.730Z,65.50
2022-09-11T13:25:59.245Z,64.70
2022-09-11T13:28:35.883Z,65.05
2022-09-11T13:31:04.807Z,65.12
2022-09-11T13:33:32.435Z,65.06
2022-09-11T13:36:06.762Z,65.23
2022-09-11T13:38:36.545Z,64.24
2022-09-11T13:41:07.258Z,63.59
2022-09-11T13:43:58.423Z,65.18
2022-09-11T13:46:31.459Z,63.50
2022-09-11T13:49:14.319Z,63.86
2022-09-11T13:51:44.551Z,63.22
2022-09-11T13:54:26.959Z,63.09
2022-09-11T13:56:56.315Z,63.24
2022-09-11T13:59:36.527Z,63.60
2022-09-11T14:02:06.606Z,62.90
2022-09-11T14:04:40.987Z,62.53
2022-09-11T14:07:20.850Z,61.96
2022-09-11T14:10:14.868Z,63.08
2022-09-11T14:13:23.022Z,63.20
2022-09-11T14:16:08.790Z,62.10
2022-09-11T14:18:52.747Z,61.45
2022-09-11T14:21:26.117Z,60.83
2022-09-11T14:23:55.201Z,60.70
2022-09-11T14:26:24.271Z,61.17
2022-09-11T14:28:56.961Z,60.65
2022-09-11T14:31:44.898Z,60.02
2022-09-11T14:34:18.937Z,59.55
2022-09-11T14:36:49.176Z,59.03
2022-09-11T14:39:24.646Z,58.72
2022-09-11T14:41:52.702Z,58.80
2022-09-11T14:44:22.109Z,58.41
2022-09-11T14:46:49.003Z,58.16
2022-09-11T14:49:15.699Z,58.92
2022-09-11T14:51:43.210Z,58.29
2022-09-11T14:54:16.033Z,58.50
2022-09-11T14:56:42.679Z,58.46
2022-09-11T14:59:09.207Z,58.07
2022-09-11T15:01:36.474Z,58.16
2022-09-11T15:04:03.188Z,57.88
2022-09-11T15:06:29.712Z,57.92
2022-09-11T15:08:56.250Z,57.71
2022-09-11T15:11:22.677Z,57.48
2022-09-11T15:14:13.260Z,57.82
2022-09-11T15:16:35.763Z,57.25
2022-09-11T15:19:02.148Z,58.27
2022-09-11T15:21:28.617Z,58.46
2022-09-11T15:23:55.544Z,58.70
2022-09-11T15:26:21.892Z,59.53
2022-09-11T15:28:51.660Z,59.48
2022-09-11T15:31:21.559Z,58.26
2022-09-11T15:33:51.944Z,57.44
2022-09-11T15:36:18.945Z,57.55
2022-09-11T15:38:55.047Z,57.65
2022-09-11T15:41:22.667Z,58.40
2022-09-11T15:43:50.663Z,59.00
2022-09-11T15:46:18.724Z,58.49
2022-09-11T15:48:45.748Z,58.63
2022-09-11T15:51:15.237Z,58.71
2022-09-11T15:53:41.673Z,58.97
2022-09-11T15:56:11.027Z,59.60
2022-09-11T15:58:41.512Z,59.51
2022-09-11T16:01:25.449Z,59.51
2022-09-11T16:03:56.983Z,59.30
2022-09-11T16:06:25.671Z,59.62
2022-09-11T16:08:56.464Z,58.87
2022-09-11T16:11:24.225Z,59.57
2022-09-11T16:13:52.428Z,59.05
2022-09-11T16:16:19.902Z,60.00
2022-09-11T16:18:46.714Z,59.91
2022-09-11T16:21:14.750Z,59.31
2022-09-11T16:23:41.823Z,59.19
2022-09-11T16:26:11.717Z,59.81
2022-09-11T16:28:40.176Z,59.75
2022-09-11T16:31:07.846Z,60.05
2022-09-11T16:33:40.208Z,60.18
2022-09-11T16:36:09.436Z,60.40
2022-09-11T16:38:39.251Z,60.30
2022-09-11T16:41:09.265Z,60.70
2022-09-11T16:43:36.373Z,59.94
2022-09-11T16:46:04.181Z,60.12
2022-09-11T16:48:31.915Z,61.42
2022-09-11T16:50:58.609Z,61.20
2022-09-11T16:53:27.865Z,60.67
2022-09-11T16:55:54.296Z,60.86
2022-09-11T16:58:21.189Z,60.97
2022-09-11T17:00:48.421Z,61.48
2022-09-11T17:03:15.064Z,61.78
2022-09-11T17:05:53.897Z,60.92
2022-09-11T17:08:21.415Z,61.29
2022-09-11T17:10:54.213Z,62.62
2022-09-11T17:13:21.088Z,61.62
2022-09-11T17:15:47.463Z,63.03
2022-09-11T17:18:13.905Z,61.63
2022-09-11T17:20:40.273Z,62.21
2022-09-11T17:23:07.280Z,62.33
2022-09-11T17:25:38.704Z,62.10
2022-09-11T17:28:05.798Z,62.96
2022-09-11T17:30:33.110Z,63.39
2022-09-11T17:32:59.471Z,64.01
2022-09-11T17:35:25.820Z,63.62
2022-09-11T17:37:52.536Z,64.28
2022-09-11T17:40:19.085Z,63.46
2022-09-11T17:42:46.470Z,64.83
2022-09-11T17:45:12.903Z,64.28
2022-09-11T17:47:40.863Z,64.80
2022-09-11T17:50:07.716Z,65.11
2022-09-11T17:52:34.440Z,65.77
2022-09-11T17:55:00.814Z,65.15
2022-09-11T17:57:27.167Z,66.06
2022-09-11T17:59:55.262Z,66.05
2022-09-11T18:02:21.904Z,66.56
2022-09-11T18:04:48.334Z,66.17
2022-09-11T18:07:14.902Z,66.98
2022-09-11T18:09:41.373Z,66.31
2022-09-11T18:12:07.842Z,66.32
2022-09-11T18:14:39.644Z,67.32
2022-09-11T18:17:06.115Z,67.42
2022-09-11T18:19:32.553Z,66.63
2022-09-11T18:21:59.847Z,67.47
2022-09-11T18:24:29.886Z,66.71
2022-09-11T18:27:00.668Z,67.52
2022-09-11T18:29:30.017Z,66.83
2022-09-11T18:31:57.046Z,67.76
2022-09-11T18:34:26.067Z,67.41
2022-09-11T18:36:52.995Z,67.69
2022-09-11T18:39:20.908Z,67.57
2022-09-11T18:41:49.082Z,68.43
2022-09-11T18:44:19.948Z,68.07
2022-09-11T18:46:47.491Z,67.96
2022-09-11T18:49:15.168Z,69.17
2022-09-11T18:51:42.274Z,68.97
2022-09-11T18:54:17.271Z,68.56
2022-09-11T18:56:44.439Z,69.32
2022-09-11T18:59:12.552Z,68.52
2022-09-11T19:01:39.878Z,69.04
2022-09-11T19:04:10.896Z,68.45
2022-09-11T19:06:41.073Z,68.92
2022-09-11T19:09:10.345Z,68.90
2022-09-11T19:11:37.473Z,69.84
2022-09-11T19:14:06.791Z,70.08
2022-09-11T19:16:33.809Z,69.70
2022-09-11T19:19:00.466Z,70.25
2022-09-11T19:21:27.604Z,70.08
2022-09-11T19:24:00.615Z,70.84
2022-09-11T19:26:30.124Z,70.13
2022-09-11T19:28:56.916Z,70.23
2022-09-11T19:31:27.589Z,70.70
2022-09-11T19:33:54.684Z,70.80
2022-09-11T19:36:23.464Z,71.09
2022-09-11T19:38:55.829Z,71.13
2022-09-11T19:41:25.894Z,70.97
2022-09-11T19:43:54.035Z,71.33
2022-09-11T19:46:26.319Z,71.69
2022-09-11T19:48:56.655Z,71.26
2022-09-11T19:51:29.343Z,71.72
2022-09-11T19:53:57.679Z,72.31
2022-09-11T19:56:25.657Z,71.42
2022-09-11T19:58:52.917Z,72.21
2022-09-11T20:01:22.377Z,72.32
2022-09-11T20:03:50.134Z,71.82
2022-09-11T20:06:18.622Z,72.35
2022-09-11T20:08:47.113Z,72.64
2022-09-11T20:11:17.057Z,73.13
2022-09-11T20:13:43.712Z,72.41
2022-09-11T20:16:14.958Z,72.29
2022-09-11T20:18:42.883Z,73.16
2022-09-11T20:21:18.142Z,73.32
2022-09-11T20:23:45.423Z,73.14
2022-09-11T20:26:17.626Z,73.78
2022-09-11T20:31:28.846Z,73.60
2022-09-11T20:33:55.344Z,73.24
2022-09-11T20:36:23.453Z,74.04
2022-09-11T20:38:52.000Z,73.53
2022-09-11T20:41:19.390Z,74.33
2022-09-11T20:43:46.366Z,74.26
2022-09-11T20:46:12.822Z,74.40
2022-09-11T20:48:39.224Z,74.14
2022-09-11T20:51:08.909Z,74.43
2022-09-11T20:53:36.348Z,74.27
2022-09-11T20:56:06.072Z,75.17
2022-09-11T20:58:38.994Z,75.04
2022-09-11T21:01:07.334Z,75.14
2022-09-11T21:03:34.285Z,75.40
2022-09-11T21:06:08.445Z,75.21
2022-09-11T21:08:35.392Z,75.07
2022-09-11T21:11:04.823Z,75.25
2022-09-11T21:13:34.432Z,75.33
2022-09-11T21:16:04.055Z,75.55
2022-09-11T21:18:30.560Z,75.60
2022-09-11T21:20:57.002Z,75.45
2022-09-11T21:23:23.785Z,75.44
2022-09-11T21:25:52.831Z,75.86
2022-09-11T21:28:19.614Z,75.96
2022-09-11T21:30:45.999Z,75.80
2022-09-11T21:33:12.348Z,75.49
2022-09-11T21:35:39.388Z,75.70
2022-09-11T21:38:06.086Z,76.23
2022-09-11T21:40:32.552Z,76.41
2022-09-11T21:42:58.913Z,76.40
2022-09-11T21:45:25.860Z,76.16
2022-09-11T21:47:52.247Z,76.70
2022-09-11T21:50:18.600Z,76.46
2022-09-11T21:52:44.983Z,76.69
2022-09-11T21:55:12.060Z,76.42
2022-09-11T21:57:38.491Z,76.46
2022-09-11T22:00:11.873Z,76.47
2022-09-11T22:02:38.596Z,76.36
2022-09-11T22:05:05.590Z,76.85
2022-09-11T22:07:32.573Z,76.64
2022-09-11T22:09:59.351Z,76.92
2022-09-11T22:12:26.247Z,77.03
2022-09-11T22:14:54.733Z,76.85
2022-09-11T22:17:21.847Z,77.09
2022-09-11T22:19:48.284Z,77.12
2022-09-11T22:22:14.956Z,77.12
2022-09-11T22:24:41.950Z,76.95
2022-09-11T22:27:09.688Z,77.39
2022-09-11T22:29:37.044Z,77.24
2022-09-11T22:32:06.820Z,77.51
2022-09-11T22:34:34.568Z,77.51
2022-09-11T22:37:01.665Z,77.94
2022-09-11T22:39:28.213Z,77.86
2022-09-11T22:41:55.105Z,78.27
2022-09-11T22:44:21.727Z,78.03
2022-09-11T22:46:48.933Z,77.94
2022-09-11T22:49:15.545Z,77.99
2022-09-11T22:51:41.994Z,77.79
2022-09-11T22:54:08.495Z,78.00
2022-09-11T22:56:34.865Z,78.33
2022-09-11T22:59:01.294Z,78.38
2022-09-11T23:01:28.047Z,78.36
2022-09-11T23:03:54.687Z,78.53
2022-09-11T23:06:40.438Z,78.10
2022-09-11T23:09:10.013Z,78.42
2022-09-11T23:11:36.446Z,78.32
2022-09-11T23:14:02.876Z,78.19
2022-09-11T23:16:29.519Z,78.67
2022-09-11T23:18:58.361Z,78.54
2022-09-11T23:21:25.960Z,78.87
2022-09-11T23:23:54.902Z,79.08
2022-09-11T23:26:22.101Z,78.88
2022-09-11T23:28:48.635Z,78.88
2022-09-11T23:31:26.821Z,78.75
2022-09-11T23:33:55.533Z,79.44
2022-09-11T23:36:22.505Z,79.38
2022-09-11T23:38:50.417Z,79.39
2022-09-11T23:41:17.844Z,78.92
2022-09-11T23:43:44.471Z,79.25
2022-09-11T23:46:11.652Z,79.32
2022-09-11T23:48:38.372Z,78.87
2022-09-11T23:51:05.579Z,78.79
2022-09-11T23:53:32.208Z,78.99
2022-09-11T23:55:58.951Z,79.10
2022-09-11T23:58:25.665Z,79.57
